Bilhorod-Dnistrovs'kyy, Ukraine
Current Conditions -  °F | °C
As of 11:06 AM on Wednesday 22 Oct 2014 (Local Time) from UKOO Reporting Station
Broken Clouds Broken Clouds  
Wind Chill: 54°   Ceiling: 500
Heat Index: 54°   Visibility: 6mi
Dew Point: 52°   Wind: 7mph
Humidity: 94%   Direction: 60°ENE
Pressure: 29.77"   Gusts: NA
Location:  46.2°N, 30.35°E
Report Text: UKOO 220806Z 06003MPS 9999 BKN005 12/11 Q1008 34290054 NOSIG
Loading
Personal Weather Stations






























Interactive Weather Map
Tropical Storm Tracking
New forecast layout! Learn more

10-Day Weather Forecast

Advertisements
Track Severe Weather on mobile